createdAt,value
2022-10-02T00:00:16.425Z,11.50
2022-10-02T00:01:16.938Z,11.48
2022-10-02T00:02:16.605Z,11.45
2022-10-02T00:03:17.048Z,11.45
2022-10-02T00:04:16.516Z,11.47
2022-10-02T00:05:17.014Z,11.50
2022-10-02T00:06:16.467Z,11.51
2022-10-02T00:07:16.907Z,11.52
2022-10-02T00:08:18.117Z,11.52
2022-10-02T00:09:16.512Z,11.59
2022-10-02T00:10:16.983Z,11.64
2022-10-02T00:11:16.479Z,11.65
2022-10-02T00:12:17.023Z,11.62
2022-10-02T00:13:16.485Z,11.65
2022-10-02T00:14:16.965Z,11.62
2022-10-02T00:15:16.454Z,11.65
2022-10-02T00:16:17.079Z,11.68
2022-10-02T00:17:16.599Z,11.75
2022-10-02T00:18:17.052Z,11.78
2022-10-02T00:19:16.476Z,11.79
2022-10-02T00:20:16.940Z,11.80
2022-10-02T00:21:16.362Z,11.83
2022-10-02T00:22:17.063Z,11.85
2022-10-02T00:23:16.492Z,11.86
2022-10-02T00:24:16.926Z,11.86
2022-10-02T00:25:16.373Z,11.86
2022-10-02T00:26:16.856Z,11.85
2022-10-02T00:27:16.575Z,11.83
2022-10-02T00:28:17.089Z,11.83
2022-10-02T00:29:16.660Z,11.79
2022-10-02T00:30:17.164Z,11.83
2022-10-02T00:31:16.682Z,11.83
2022-10-02T00:32:17.006Z,11.85
2022-10-02T00:33:16.429Z,11.85
2022-10-02T00:34:16.889Z,11.86
2022-10-02T00:35:16.309Z,11.85
2022-10-02T00:36:16.766Z,11.80
2022-10-02T00:37:17.192Z,11.80
2022-10-02T00:38:16.613Z,11.80
2022-10-02T00:39:17.074Z,11.80
2022-10-02T00:40:16.544Z,11.79
2022-10-02T00:41:17.008Z,11.78
2022-10-02T00:42:16.545Z,11.79
2022-10-02T00:43:17.026Z,11.75
2022-10-02T00:44:16.491Z,11.75
2022-10-02T00:45:16.970Z,11.75
2022-10-02T00:46:16.507Z,11.71
2022-10-02T00:47:17.143Z,11.73
2022-10-02T00:48:16.579Z,11.71
2022-10-02T00:49:17.010Z,11.71
2022-10-02T00:50:16.493Z,11.68
2022-10-02T00:51:16.936Z,11.66
2022-10-02T00:52:16.832Z,11.66
2022-10-02T00:53:17.262Z,11.65
2022-10-02T00:54:16.725Z,11.62
2022-10-02T00:55:17.221Z,11.61
2022-10-02T00:56:16.750Z,11.58
2022-10-02T00:57:17.198Z,11.57
2022-10-02T00:58:16.658Z,11.55
2022-10-02T00:59:17.116Z,11.51
2022-10-02T01:00:16.592Z,11.50
2022-10-02T01:01:17.115Z,11.49
2022-10-02T01:02:16.736Z,11.49
2022-10-02T01:03:17.251Z,11.52
2022-10-02T01:04:16.687Z,11.49
2022-10-02T01:05:17.124Z,11.51
2022-10-02T01:06:16.549Z,11.50
2022-10-02T01:07:16.971Z,11.49
2022-10-02T01:08:16.424Z,11.47
2022-10-02T01:09:16.853Z,11.48
2022-10-02T01:10:16.327Z,11.47
2022-10-02T01:11:16.783Z,11.44
2022-10-02T01:12:16.668Z,11.42
2022-10-02T01:13:17.131Z,11.42
2022-10-02T01:14:16.596Z,11.50
2022-10-02T01:15:17.052Z,11.45
2022-10-02T01:16:16.576Z,11.44
2022-10-02T01:17:17.185Z,11.43
2022-10-02T01:18:16.612Z,11.37
2022-10-02T01:19:17.035Z,11.33
2022-10-02T01:20:16.495Z,11.29
2022-10-02T01:21:16.913Z,11.25
2022-10-02T01:22:16.337Z,11.17
2022-10-02T01:23:16.796Z,11.16
2022-10-02T01:24:17.255Z,11.09
2022-10-02T01:25:16.722Z,11.06
2022-10-02T01:26:17.236Z,11.02
2022-10-02T01:27:16.691Z,10.96
2022-10-02T01:28:17.261Z,10.87
2022-10-02T01:29:16.851Z,10.89
2022-10-02T01:30:16.309Z,10.89
2022-10-02T01:31:16.833Z,10.85
2022-10-02T01:32:16.322Z,10.84
2022-10-02T01:33:16.744Z,10.81
2022-10-02T01:34:17.211Z,10.78
2022-10-02T01:35:16.650Z,10.79
2022-10-02T01:36:17.067Z,10.77
2022-10-02T01:37:16.502Z,10.78
2022-10-02T01:38:16.963Z,10.75
2022-10-02T01:39:16.423Z,10.77
2022-10-02T01:40:16.874Z,10.81
2022-10-02T01:41:16.321Z,10.79
2022-10-02T01:42:17.052Z,10.82
2022-10-02T01:43:16.550Z,10.79
2022-10-02T01:44:17.049Z,10.77
2022-10-02T01:45:16.511Z,10.75
2022-10-02T01:46:16.958Z,10.74
2022-10-02T01:47:16.516Z,10.75
2022-10-02T01:48:16.985Z,10.74
2022-10-02T01:49:16.422Z,10.71
2022-10-02T01:50:16.863Z,10.71
2022-10-02T01:51:16.289Z,10.74
2022-10-02T01:52:16.835Z,10.74
2022-10-02T01:53:17.296Z,10.72
2022-10-02T01:54:16.785Z,10.75
2022-10-02T01:55:17.251Z,10.77
2022-10-02T01:56:16.708Z,10.74
2022-10-02T01:57:17.206Z,10.77
2022-10-02T01:58:16.666Z,10.78
2022-10-02T01:59:17.177Z,10.79
2022-10-02T02:00:16.644Z,10.75
2022-10-02T02:01:17.175Z,10.75
2022-10-02T02:02:16.758Z,10.78
2022-10-02T02:03:16.272Z,10.77
2022-10-02T02:04:16.719Z,10.81
2022-10-02T02:05:17.141Z,10.81
2022-10-02T02:06:16.576Z,10.79
2022-10-02T02:07:17.033Z,10.79
2022-10-02T02:08:16.511Z,10.78
2022-10-02T02:09:16.971Z,10.74
2022-10-02T02:10:16.415Z,10.78
2022-10-02T02:11:16.858Z,10.82
2022-10-02T02:12:16.705Z,10.82
2022-10-02T02:13:17.160Z,10.81
2022-10-02T02:14:16.620Z,10.79
2022-10-02T02:15:17.088Z,10.81
2022-10-02T02:16:16.596Z,10.78
2022-10-02T02:17:17.130Z,10.81
2022-10-02T02:18:16.579Z,10.79
2022-10-02T02:19:17.008Z,10.79
2022-10-02T02:20:16.436Z,10.78
2022-10-02T02:21:16.855Z,10.84
2022-10-02T02:22:16.428Z,10.81
2022-10-02T02:23:16.883Z,10.84
2022-10-02T02:24:16.364Z,10.84
2022-10-02T02:25:16.828Z,10.78
2022-10-02T02:26:16.313Z,10.81
2022-10-02T02:27:16.769Z,10.82
2022-10-02T02:28:17.346Z,10.81
2022-10-02T02:29:16.927Z,10.82
2022-10-02T02:30:16.359Z,10.81
2022-10-02T02:31:16.872Z,10.81
2022-10-02T02:32:16.345Z,10.81
2022-10-02T02:33:16.783Z,10.84
2022-10-02T02:34:17.214Z,10.82
2022-10-02T02:35:16.634Z,10.81
2022-10-02T02:36:17.055Z,10.84
2022-10-02T02:37:16.516Z,10.87
2022-10-02T02:38:17.025Z,10.89
2022-10-02T02:39:16.493Z,10.87
2022-10-02T02:40:16.955Z,10.81
2022-10-02T02:41:16.425Z,10.79
2022-10-02T02:42:17.903Z,10.81
2022-10-02T02:43:16.412Z,10.82
2022-10-02T02:44:16.903Z,10.81
2022-10-02T02:45:16.331Z,10.82
2022-10-02T02:46:16.792Z,10.82
2022-10-02T02:47:17.242Z,10.81
2022-10-02T02:48:16.682Z,10.82
2022-10-02T02:49:17.128Z,10.82
2022-10-02T02:50:16.583Z,10.84
2022-10-02T02:51:17.024Z,10.84
2022-10-02T02:52:16.617Z,10.87
2022-10-02T02:53:17.089Z,10.84
2022-10-02T02:54:16.581Z,10.87
2022-10-02T02:55:17.028Z,10.84
2022-10-02T02:56:16.491Z,10.87
2022-10-02T02:57:16.941Z,10.87
2022-10-02T02:58:16.398Z,10.91
2022-10-02T02:59:16.825Z,10.88
2022-10-02T03:00:17.275Z,10.87
2022-10-02T03:01:16.760Z,10.85
2022-10-02T03:02:16.570Z,10.85
2022-10-02T03:03:17.129Z,10.88
2022-10-02T03:04:16.556Z,10.91
2022-10-02T03:05:16.980Z,10.92
2022-10-02T03:06:16.424Z,10.92
2022-10-02T03:07:16.896Z,10.94
2022-10-02T03:08:16.356Z,10.98
2022-10-02T03:09:16.820Z,10.94
2022-10-02T03:10:16.301Z,10.91
2022-10-02T03:11:16.772Z,10.94
2022-10-02T03:12:17.118Z,10.91
2022-10-02T03:13:16.556Z,10.91
2022-10-02T03:14:17.004Z,10.91
2022-10-02T03:15:16.443Z,10.91
2022-10-02T03:16:17.020Z,10.89
2022-10-02T03:17:16.550Z,10.89
2022-10-02T03:18:17.017Z,10.89
2022-10-02T03:19:16.439Z,10.89
2022-10-02T03:20:16.903Z,10.88
2022-10-02T03:21:16.372Z,10.87
2022-10-02T03:22:16.569Z,10.87
2022-10-02T03:23:17.061Z,10.89
2022-10-02T03:24:16.557Z,10.88
2022-10-02T03:25:17.027Z,10.88
2022-10-02T03:26:16.513Z,10.92
2022-10-02T03:27:16.991Z,10.92
2022-10-02T03:28:23.881Z,10.91
2022-10-02T03:29:16.953Z,10.94
2022-10-02T03:30:16.393Z,10.95
2022-10-02T03:31:16.887Z,10.94
2022-10-02T03:32:16.449Z,10.92
2022-10-02T03:33:16.882Z,10.94
2022-10-02T03:34:16.304Z,10.99
2022-10-02T03:35:16.764Z,10.98
2022-10-02T03:36:17.231Z,11.05
2022-10-02T03:37:16.704Z,11.03
2022-10-02T03:38:17.180Z,11.06
2022-10-02T03:39:25.477Z,11.07
2022-10-02T03:40:16.853Z,11.07
2022-10-02T03:41:16.327Z,11.07
2022-10-02T03:42:16.589Z,11.12
2022-10-02T03:43:17.063Z,11.13
2022-10-02T03:44:16.512Z,11.10
2022-10-02T03:45:32.958Z,11.12
2022-10-02T03:46:16.463Z,11.12
2022-10-02T03:47:17.015Z,11.15
2022-10-02T03:48:16.470Z,11.15
2022-10-02T03:49:16.888Z,11.17
2022-10-02T03:50:16.349Z,11.16
2022-10-02T03:51:16.803Z,11.16
2022-10-02T03:52:16.476Z,11.19
2022-10-02T03:53:16.964Z,11.19
2022-10-02T03:54:16.415Z,11.23
2022-10-02T03:55:16.900Z,11.26
2022-10-02T03:56:16.340Z,11.27
2022-10-02T03:57:16.799Z,11.29
2022-10-02T03:58:17.218Z,11.27
2022-10-02T03:59:16.640Z,11.31
2022-10-02T04:00:17.092Z,11.31
2022-10-02T04:01:16.595Z,11.36
2022-10-02T04:02:17.136Z,11.36
2022-10-02T04:03:16.604Z,11.33
2022-10-02T04:04:17.215Z,11.36
2022-10-02T04:05:16.686Z,11.40
2022-10-02T04:06:17.187Z,11.39
2022-10-02T04:07:16.669Z,11.37
2022-10-02T04:08:17.137Z,11.40
2022-10-02T04:09:16.625Z,11.46
2022-10-02T04:10:17.130Z,11.42
2022-10-02T04:11:16.618Z,11.43
2022-10-02T04:12:16.796Z,11.44
2022-10-02T04:13:17.266Z,11.42
2022-10-02T04:14:16.734Z,11.44
2022-10-02T04:15:17.344Z,11.46
2022-10-02T04:16:16.819Z,11.42
2022-10-02T04:17:16.564Z,11.43
2022-10-02T04:18:16.993Z,11.44
2022-10-02T04:19:16.432Z,11.44
2022-10-02T04:20:16.908Z,11.44
2022-10-02T04:21:16.413Z,11.43
2022-10-02T04:22:16.871Z,11.43
2022-10-02T04:23:16.337Z,11.46
2022-10-02T04:24:16.843Z,11.43
2022-10-02T04:25:16.341Z,11.44
2022-10-02T04:26:17.136Z,11.44
2022-10-02T04:27:16.621Z,11.46
2022-10-02T04:28:17.171Z,11.49
2022-10-02T04:29:16.723Z,11.47
2022-10-02T04:30:17.175Z,11.49
2022-10-02T04:31:16.642Z,11.49
2022-10-02T04:32:16.551Z,11.47
2022-10-02T04:33:17.005Z,11.47
2022-10-02T04:34:16.469Z,11.47
2022-10-02T04:35:16.934Z,11.50
2022-10-02T04:36:16.424Z,11.53
2022-10-02T04:37:16.933Z,11.50
2022-10-02T04:38:16.393Z,11.50
2022-10-02T04:39:16.867Z,11.53
2022-10-02T04:40:16.348Z,11.53
2022-10-02T04:41:16.783Z,11.53
2022-10-02T04:42:17.456Z,11.58
2022-10-02T04:43:16.909Z,11.68
2022-10-02T04:44:16.332Z,11.80
2022-10-02T04:45:16.753Z,11.71
2022-10-02T04:46:17.216Z,11.70
2022-10-02T04:47:16.796Z,11.70
2022-10-02T04:48:17.223Z,11.75
2022-10-02T04:49:16.688Z,11.75
2022-10-02T04:50:17.169Z,11.74
2022-10-02T04:51:16.660Z,11.77
2022-10-02T04:52:16.677Z,11.74
2022-10-02T04:53:17.147Z,11.72
2022-10-02T04:54:16.611Z,11.77
2022-10-02T04:55:17.068Z,11.78
2022-10-02T04:56:16.516Z,11.85
2022-10-02T04:57:16.955Z,11.85
2022-10-02T04:58:16.388Z,11.84
2022-10-02T04:59:16.838Z,11.85
2022-10-02T05:00:17.297Z,11.96
2022-10-02T05:01:16.774Z,11.99
2022-10-02T05:02:17.287Z,11.96
2022-10-02T05:03:16.917Z,11.91
2022-10-02T05:04:16.377Z,11.88
2022-10-02T05:05:16.851Z,11.93
2022-10-02T05:06:16.324Z,11.89
2022-10-02T05:07:16.828Z,11.88
2022-10-02T05:08:17.306Z,11.88
2022-10-02T05:09:16.776Z,11.85
2022-10-02T05:10:17.257Z,11.82
2022-10-02T05:11:16.699Z,11.96
2022-10-02T05:12:17.209Z,11.99
2022-10-02T05:13:16.639Z,11.95
2022-10-02T05:14:17.067Z,11.98
2022-10-02T05:15:16.505Z,11.99
2022-10-02T05:16:16.989Z,11.99
2022-10-02T05:17:16.492Z,11.99
2022-10-02T05:18:18.069Z,11.98
2022-10-02T05:19:16.646Z,11.96
2022-10-02T05:20:17.107Z,11.95
2022-10-02T05:21:16.575Z,12.01
2022-10-02T05:22:16.321Z,11.96
2022-10-02T05:23:16.815Z,11.99
2022-10-02T05:24:17.267Z,11.98
2022-10-02T05:25:16.728Z,11.93
2022-10-02T05:26:17.190Z,11.92
2022-10-02T05:27:16.615Z,11.92
2022-10-02T05:28:17.110Z,11.91
2022-10-02T05:29:16.706Z,11.89
2022-10-02T05:30:17.165Z,11.88
2022-10-02T05:31:16.624Z,11.88
2022-10-02T05:32:16.321Z,11.88
2022-10-02T05:33:16.752Z,11.88
2022-10-02T05:34:17.210Z,11.88
2022-10-02T05:35:16.672Z,12.09
2022-10-02T05:36:17.170Z,12.09
2022-10-02T05:37:16.666Z,12.12
2022-10-02T05:38:17.125Z,12.15
2022-10-02T05:39:16.576Z,12.09
2022-10-02T05:40:17.022Z,12.09
2022-10-02T05:41:16.447Z,12.09
2022-10-02T05:42:17.060Z,12.11
2022-10-02T05:43:16.503Z,12.08
2022-10-02T05:44:16.940Z,12.08
2022-10-02T05:45:16.376Z,12.08
2022-10-02T05:46:16.853Z,12.09
2022-10-02T05:47:16.361Z,12.13
2022-10-02T05:48:16.865Z,12.12
2022-10-02T05:49:16.348Z,12.13
2022-10-02T05:50:16.827Z,12.12
2022-10-02T05:51:17.273Z,12.20
2022-10-02T05:52:16.866Z,12.15
2022-10-02T05:53:16.328Z,12.11
2022-10-02T05:54:16.789Z,12.11
2022-10-02T05:55:17.222Z,12.12
2022-10-02T05:56:16.644Z,12.15
2022-10-02T05:57:17.073Z,12.11
2022-10-02T05:58:16.517Z,12.11
2022-10-02T05:59:16.963Z,12.11
2022-10-02T06:00:16.428Z,12.11
2022-10-02T06:01:16.888Z,12.11
2022-10-02T06:02:16.429Z,12.06
2022-10-02T06:03:17.068Z,12.05
2022-10-02T06:04:16.781Z,12.05
2022-10-02T06:05:17.252Z,12.05
2022-10-02T06:06:16.767Z,12.11
2022-10-02T06:07:17.277Z,12.08
2022-10-02T06:08:16.757Z,12.09
2022-10-02T06:09:19.943Z,12.11
2022-10-02T06:10:16.924Z,12.13
2022-10-02T06:11:16.385Z,12.12
2022-10-02T06:12:16.821Z,12.12
2022-10-02T06:13:17.244Z,12.13
2022-10-02T06:14:16.703Z,12.13
2022-10-02T06:15:17.140Z,12.30
2022-10-02T06:16:16.605Z,12.30
2022-10-02T06:17:17.208Z,12.26
2022-10-02T06:18:16.696Z,12.26
2022-10-02T06:19:17.143Z,12.23
2022-10-02T06:20:16.599Z,12.25
2022-10-02T06:21:17.077Z,12.25
2022-10-02T06:22:16.403Z,12.25
2022-10-02T06:23:16.911Z,12.26
2022-10-02T06:24:16.371Z,12.30
2022-10-02T06:25:16.827Z,12.43
2022-10-02T06:26:17.247Z,12.43
2022-10-02T06:27:16.764Z,12.41
2022-10-02T06:28:17.258Z,12.37
2022-10-02T06:29:19.248Z,12.37
2022-10-02T06:30:16.605Z,12.37
2022-10-02T06:31:17.071Z,12.39
2022-10-02T06:32:17.046Z,12.40
2022-10-02T06:33:16.517Z,12.41
2022-10-02T06:34:16.971Z,12.40
2022-10-02T06:35:16.444Z,12.36
2022-10-02T06:36:16.901Z,12.39
2022-10-02T06:37:16.358Z,12.36
2022-10-02T06:38:16.823Z,12.36
2022-10-02T06:39:17.275Z,12.35
2022-10-02T06:40:16.705Z,12.37
2022-10-02T06:41:17.170Z,12.33
2022-10-02T06:42:17.173Z,12.35
2022-10-02T06:43:16.625Z,12.32
2022-10-02T06:44:17.117Z,12.32
2022-10-02T06:45:16.571Z,12.33
2022-10-02T06:46:17.025Z,12.33
2022-10-02T06:47:16.504Z,12.32
2022-10-02T06:48:16.991Z,12.35
2022-10-02T06:49:16.475Z,12.44
2022-10-02T06:50:16.960Z,12.44
2022-10-02T06:51:16.420Z,12.41
2022-10-02T06:52:17.000Z,12.40
2022-10-02T06:53:16.483Z,12.37
2022-10-02T06:54:16.906Z,12.39
2022-10-02T06:55:16.371Z,12.41
2022-10-02T06:56:16.799Z,12.40
2022-10-02T06:57:17.249Z,12.39
2022-10-02T06:58:16.671Z,12.40
2022-10-02T06:59:17.128Z,12.44
2022-10-02T07:00:16.584Z,12.43
2022-10-02T07:01:17.104Z,12.41
2022-10-02T07:02:16.757Z,12.46
2022-10-02T07:03:16.351Z,12.44
2022-10-02T07:04:16.808Z,12.46
2022-10-02T07:05:17.323Z,12.46
2022-10-02T07:06:16.785Z,12.46
2022-10-02T07:07:17.261Z,12.46
2022-10-02T07:08:16.717Z,12.46
2022-10-02T07:09:17.160Z,12.44
2022-10-02T07:10:16.594Z,12.43
2022-10-02T07:11:17.032Z,12.61
2022-10-02T07:12:16.739Z,12.57
2022-10-02T07:13:17.199Z,12.56
2022-10-02T07:14:16.628Z,12.58
2022-10-02T07:15:17.076Z,12.63
2022-10-02T07:16:16.586Z,12.67
2022-10-02T07:17:20.401Z,12.77
2022-10-02T07:18:16.852Z,12.77
2022-10-02T07:19:16.339Z,12.79
2022-10-02T07:20:16.816Z,12.80
2022-10-02T07:21:17.317Z,12.77
2022-10-02T07:22:39.863Z,12.79
2022-10-02T07:23:16.787Z,12.77
2022-10-02T07:24:17.261Z,12.79
2022-10-02T07:25:16.690Z,12.82
2022-10-02T07:26:17.149Z,12.82
2022-10-02T07:27:16.572Z,12.82
2022-10-02T07:28:17.103Z,12.81
2022-10-02T07:29:16.641Z,12.79
2022-10-02T07:30:17.088Z,12.85
2022-10-02T07:31:16.586Z,12.79
2022-10-02T07:32:17.259Z,12.81
2022-10-02T07:33:16.727Z,12.78
2022-10-02T07:34:17.192Z,12.79
2022-10-02T07:35:16.634Z,12.79
2022-10-02T07:36:17.094Z,12.82
2022-10-02T07:37:16.564Z,12.79
2022-10-02T07:38:17.135Z,12.79
2022-10-02T07:39:16.591Z,12.78
2022-10-02T07:40:17.009Z,12.79
2022-10-02T07:41:16.461Z,12.79
2022-10-02T07:42:16.833Z,12.82
2022-10-02T07:43:17.293Z,12.84
2022-10-02T07:44:16.726Z,12.85
2022-10-02T07:45:17.189Z,12.84
2022-10-02T07:46:16.666Z,12.85
2022-10-02T07:47:16.312Z,12.85
2022-10-02T07:48:16.806Z,12.87
2022-10-02T07:49:17.269Z,12.84
2022-10-02T07:50:16.724Z,12.87
2022-10-02T07:51:20.927Z,12.85
2022-10-02T07:52:16.640Z,12.87
2022-10-02T07:53:17.080Z,12.89
2022-10-02T07:54:16.550Z,12.85
2022-10-02T07:55:16.977Z,12.85
2022-10-02T07:56:16.401Z,12.87
2022-10-02T07:57:16.854Z,12.82
2022-10-02T07:58:16.276Z,12.85
2022-10-02T07:59:16.728Z,12.85
2022-10-02T08:00:17.193Z,12.84
2022-10-02T08:01:16.658Z,12.85
2022-10-02T08:02:16.597Z,12.88
2022-10-02T08:03:17.173Z,12.88
2022-10-02T08:04:16.760Z,12.88
2022-10-02T08:05:17.229Z,12.89
2022-10-02T08:06:16.832Z,12.87
2022-10-02T08:07:17.299Z,12.84
2022-10-02T08:08:16.756Z,12.85
2022-10-02T08:09:17.183Z,12.85
2022-10-02T08:10:16.617Z,12.85
2022-10-02T08:11:17.046Z,12.85
2022-10-02T08:12:16.463Z,12.91
2022-10-02T08:13:16.888Z,12.87
2022-10-02T08:14:16.339Z,12.87
2022-10-02T08:15:16.810Z,12.87
2022-10-02T08:16:17.339Z,12.88
2022-10-02T08:17:16.908Z,12.89
2022-10-02T08:18:33.446Z,12.91
2022-10-02T08:19:16.553Z,12.91
2022-10-02T08:20:17.034Z,12.87
2022-10-02T08:21:16.535Z,12.91
2022-10-02T08:22:17.281Z,12.87
2022-10-02T08:23:16.716Z,12.89
2022-10-02T08:24:17.142Z,12.88
2022-10-02T08:25:16.562Z,12.89
2022-10-02T08:26:17.016Z,12.91
2022-10-02T08:27:16.436Z,12.92
2022-10-02T08:28:16.923Z,12.94
2022-10-02T08:29:16.518Z,12.95
2022-10-02T08:30:16.979Z,12.94
2022-10-02T08:31:16.549Z,12.88
2022-10-02T08:32:16.865Z,12.89
2022-10-02T08:33:16.331Z,12.89
2022-10-02T08:34:16.780Z,12.89
2022-10-02T08:35:17.246Z,12.84
2022-10-02T08:36:16.694Z,12.87
2022-10-02T08:37:17.395Z,12.91
2022-10-02T08:38:16.819Z,12.87
2022-10-02T08:39:17.272Z,12.78
2022-10-02T08:40:16.714Z,12.87
2022-10-02T08:41:17.140Z,12.85
2022-10-02T08:42:16.627Z,12.87
2022-10-02T08:43:17.075Z,12.88
2022-10-02T08:44:16.580Z,12.81
2022-10-02T08:45:17.032Z,12.81
2022-10-02T08:46:16.492Z,12.85
2022-10-02T08:47:16.971Z,12.84
2022-10-02T08:48:16.425Z,12.85
2022-10-02T08:49:16.888Z,12.77
2022-10-02T08:50:16.378Z,12.78
2022-10-02T08:51:16.948Z,12.75
2022-10-02T08:52:16.470Z,12.79
2022-10-02T08:53:16.924Z,12.84
2022-10-02T08:54:16.344Z,12.84
2022-10-02T08:55:16.792Z,12.84
2022-10-02T08:56:19.932Z,12.79
2022-10-02T08:57:16.830Z,12.78
2022-10-02T08:58:17.267Z,12.78
2022-10-02T08:59:16.738Z,12.78
2022-10-02T09:00:17.202Z,12.74
2022-10-02T09:01:16.764Z,12.70
2022-10-02T09:02:16.928Z,12.72
2022-10-02T09:03:16.511Z,12.72
2022-10-02T09:04:17.015Z,12.71
2022-10-02T09:05:16.513Z,12.66
2022-10-02T09:06:16.992Z,12.67
2022-10-02T09:07:16.456Z,12.63
2022-10-02T09:08:16.891Z,12.63
2022-10-02T09:09:16.316Z,12.64
2022-10-02T09:10:16.755Z,12.66
2022-10-02T09:11:17.171Z,12.68
2022-10-02T09:12:16.825Z,12.68
2022-10-02T09:13:17.277Z,12.70
2022-10-02T09:14:16.797Z,12.66
2022-10-02T09:15:17.290Z,12.67
2022-10-02T09:16:16.811Z,12.63
2022-10-02T09:17:16.509Z,12.63
2022-10-02T09:18:16.989Z,12.64
2022-10-02T09:19:16.445Z,12.63
2022-10-02T09:20:16.899Z,12.63
2022-10-02T09:21:16.321Z,12.64
2022-10-02T09:22:16.297Z,12.66
2022-10-02T09:23:16.734Z,12.63
2022-10-02T09:24:17.182Z,12.60
2022-10-02T09:25:16.632Z,12.57
2022-10-02T09:26:17.089Z,12.58
2022-10-02T09:27:16.548Z,12.60
2022-10-02T09:28:17.056Z,12.63
2022-10-02T09:29:16.628Z,12.67
2022-10-02T09:30:17.087Z,12.64
2022-10-02T09:31:16.624Z,12.58
2022-10-02T09:32:16.546Z,12.64
2022-10-02T09:33:17.016Z,12.66
2022-10-02T09:34:16.491Z,12.58
2022-10-02T09:35:16.970Z,12.61
2022-10-02T09:36:16.398Z,12.64
2022-10-02T09:37:16.842Z,12.63
2022-10-02T09:38:16.290Z,12.60
2022-10-02T09:39:16.769Z,12.53
2022-10-02T09:40:17.232Z,12.54
2022-10-02T09:41:16.660Z,12.60
2022-10-02T09:42:16.296Z,12.58
2022-10-02T09:43:16.780Z,12.61
2022-10-02T09:44:17.228Z,12.56
2022-10-02T09:45:16.691Z,12.54
2022-10-02T09:46:17.329Z,12.51
2022-10-02T09:47:16.939Z,12.53
2022-10-02T09:48:16.438Z,12.53
2022-10-02T09:49:16.916Z,12.54
2022-10-02T09:50:16.383Z,12.54
2022-10-02T09:51:16.821Z,12.57
2022-10-02T09:52:16.355Z,12.60
2022-10-02T09:53:16.780Z,12.56
2022-10-02T09:54:17.224Z,12.54
2022-10-02T09:55:16.684Z,12.53
2022-10-02T09:56:17.115Z,12.54
2022-10-02T09:57:16.555Z,12.54
2022-10-02T09:58:17.007Z,12.51
2022-10-02T09:59:16.492Z,12.50
2022-10-02T10:00:16.960Z,12.47
2022-10-02T10:01:16.432Z,12.49
2022-10-02T10:02:16.359Z,12.47
2022-10-02T10:03:16.882Z,12.53
2022-10-02T10:04:16.386Z,12.50
2022-10-02T10:05:16.825Z,12.50
2022-10-02T10:06:17.249Z,12.49
2022-10-02T10:07:19.010Z,12.46
2022-10-02T10:08:16.627Z,12.53
2022-10-02T10:09:17.051Z,12.50
2022-10-02T10:10:16.512Z,12.50
2022-10-02T10:11:16.935Z,12.51
2022-10-02T10:12:16.525Z,12.50
2022-10-02T10:13:17.035Z,12.50
2022-10-02T10:14:16.527Z,12.50
2022-10-02T10:15:17.013Z,12.50
2022-10-02T10:16:16.534Z,12.51
2022-10-02T10:17:17.096Z,12.54
2022-10-02T10:18:16.559Z,12.54
2022-10-02T10:19:17.008Z,12.58
2022-10-02T10:20:16.432Z,12.60
2022-10-02T10:21:16.877Z,12.68
2022-10-02T10:22:16.769Z,12.63
2022-10-02T10:23:17.188Z,12.61
2022-10-02T10:24:16.652Z,12.58
2022-10-02T10:25:17.094Z,12.66
2022-10-02T10:26:16.555Z,12.61
2022-10-02T10:27:17.044Z,12.67
2022-10-02T10:28:16.592Z,12.70
2022-10-02T10:29:17.144Z,12.71
2022-10-02T10:30:16.626Z,12.72
2022-10-02T10:31:17.126Z,12.70
2022-10-02T10:32:16.606Z,12.68
2022-10-02T10:33:17.106Z,12.70
2022-10-02T10:34:16.611Z,12.75
2022-10-02T10:35:17.031Z,12.72
2022-10-02T10:36:16.448Z,12.74
2022-10-02T10:37:16.888Z,12.68
2022-10-02T10:38:16.331Z,12.68
2022-10-02T10:39:16.776Z,12.63
2022-10-02T10:40:17.209Z,12.64
2022-10-02T10:41:16.657Z,12.61
2022-10-02T10:42:16.753Z,12.64
2022-10-02T10:43:17.218Z,12.63
2022-10-02T10:44:16.751Z,12.61
2022-10-02T10:45:17.222Z,12.60
2022-10-02T10:46:16.750Z,12.63
2022-10-02T10:47:16.333Z,12.61
2022-10-02T10:48:16.795Z,12.61
2022-10-02T10:49:17.253Z,12.63
2022-10-02T10:50:16.688Z,12.57
2022-10-02T10:51:17.133Z,12.58
2022-10-02T10:52:16.887Z,12.61
2022-10-02T10:53:16.304Z,12.56
2022-10-02T10:54:16.756Z,12.57
2022-10-02T10:55:17.187Z,12.56
2022-10-02T10:56:16.634Z,12.60
2022-10-02T10:57:17.134Z,12.60
2022-10-02T10:58:16.794Z,12.61
2022-10-02T10:59:18.953Z,12.66
2022-10-02T11:00:16.635Z,12.63
2022-10-02T11:01:17.243Z,12.64
2022-10-02T11:02:16.649Z,12.64
2022-10-02T11:03:16.344Z,12.63
2022-10-02T11:04:16.779Z,12.60
2022-10-02T11:05:17.260Z,12.61
2022-10-02T11:06:16.682Z,12.63
2022-10-02T11:07:17.103Z,12.61
2022-10-02T11:08:16.538Z,12.60
2022-10-02T11:09:16.967Z,12.61
2022-10-02T11:10:16.395Z,12.61
2022-10-02T11:11:16.823Z,12.67
2022-10-02T11:12:16.328Z,12.70
2022-10-02T11:13:16.833Z,12.70
2022-10-02T11:14:16.322Z,12.75
2022-10-02T11:15:16.813Z,12.79
2022-10-02T11:16:17.320Z,12.72
2022-10-02T11:17:16.819Z,12.78
2022-10-02T11:18:17.241Z,12.87
2022-10-02T11:19:20.613Z,12.87
2022-10-02T11:20:17.201Z,12.87
2022-10-02T11:21:16.624Z,12.87
2022-10-02T11:22:16.507Z,12.78
2022-10-02T11:23:16.967Z,12.84
2022-10-02T11:24:16.391Z,12.70
2022-10-02T11:25:16.867Z,12.77
2022-10-02T11:26:16.325Z,12.77
2022-10-02T11:27:16.824Z,12.79
2022-10-02T11:28:17.313Z,12.79
2022-10-02T11:29:16.903Z,12.81
2022-10-02T11:30:16.362Z,12.78
2022-10-02T11:31:16.875Z,12.75
2022-10-02T11:32:17.197Z,12.67
2022-10-02T11:33:16.662Z,12.70
2022-10-02T11:34:17.085Z,12.63
2022-10-02T11:35:16.529Z,12.70
2022-10-02T11:36:16.965Z,12.67
2022-10-02T11:37:16.428Z,12.72
2022-10-02T11:38:16.856Z,12.71
2022-10-02T11:39:16.283Z,12.74
2022-10-02T11:40:16.726Z,12.75
2022-10-02T11:41:17.204Z,12.72
2022-10-02T11:42:16.807Z,12.70
2022-10-02T11:43:17.275Z,12.71
2022-10-02T11:44:16.723Z,12.71
2022-10-02T11:45:17.193Z,12.78
2022-10-02T11:46:16.716Z,12.78
2022-10-02T11:47:17.298Z,12.78
2022-10-02T11:48:16.753Z,12.75
2022-10-02T11:49:17.200Z,12.71
2022-10-02T11:50:16.630Z,12.70
2022-10-02T11:51:17.059Z,12.71
2022-10-02T11:52:16.614Z,12.70
2022-10-02T11:53:17.039Z,12.67
2022-10-02T11:54:16.507Z,12.67
2022-10-02T11:55:16.972Z,12.70
2022-10-02T11:56:16.439Z,12.70
2022-10-02T11:57:16.912Z,12.74
2022-10-02T11:58:16.405Z,12.68
2022-10-02T11:59:16.876Z,12.71
2022-10-02T12:00:16.368Z,12.68
2022-10-02T12:01:16.818Z,12.72
2022-10-02T12:02:16.807Z,12.74
2022-10-02T12:03:16.558Z,12.75
2022-10-02T12:04:17.244Z,12.74
2022-10-02T12:05:16.695Z,12.71
2022-10-02T12:06:17.110Z,12.71
2022-10-02T12:07:16.558Z,12.70
2022-10-02T12:08:17.024Z,12.67
2022-10-02T12:09:16.457Z,12.68
2022-10-02T12:10:16.907Z,12.71
2022-10-02T12:11:16.389Z,12.77
2022-10-02T12:12:16.900Z,12.74
2022-10-02T12:13:16.383Z,12.67
2022-10-02T12:14:16.860Z,12.71
2022-10-02T12:15:16.349Z,12.74
2022-10-02T12:16:16.849Z,12.72
2022-10-02T12:17:16.454Z,12.70
2022-10-02T12:18:20.953Z,12.71
2022-10-02T12:19:16.543Z,12.71
2022-10-02T12:20:16.973Z,12.75
2022-10-02T12:21:16.398Z,12.78
2022-10-02T12:22:17.276Z,12.79
2022-10-02T12:23:16.696Z,12.81
2022-10-02T12:24:17.168Z,12.78
2022-10-02T12:25:16.645Z,12.77
2022-10-02T12:26:17.129Z,12.77
2022-10-02T12:27:16.594Z,12.78
2022-10-02T12:28:17.082Z,12.78
2022-10-02T12:29:16.651Z,12.74
2022-10-02T12:30:17.141Z,12.72
2022-10-02T12:31:16.693Z,12.74
2022-10-02T12:32:16.760Z,12.75
2022-10-02T12:33:17.196Z,12.77
2022-10-02T12:34:16.650Z,12.75
2022-10-02T12:35:17.126Z,12.75
2022-10-02T12:36:16.580Z,12.77
2022-10-02T12:37:17.025Z,12.81
2022-10-02T12:38:16.471Z,12.84
2022-10-02T12:39:21.264Z,12.74
2022-10-02T12:40:16.668Z,12.82
2022-10-02T12:41:17.169Z,12.87
2022-10-02T12:42:16.796Z,12.92
2022-10-02T12:43:17.255Z,12.91
2022-10-02T12:44:16.720Z,12.87
2022-10-02T12:45:17.171Z,12.82
2022-10-02T12:46:16.665Z,12.87
2022-10-02T12:47:16.279Z,12.81
2022-10-02T12:48:16.725Z,12.81
2022-10-02T12:49:17.171Z,12.91
2022-10-02T12:50:16.591Z,12.91
2022-10-02T12:51:17.039Z,12.89
2022-10-02T12:52:17.018Z,12.94